createdAt,value
2019-05-25T00:01:29.485Z,94.60
2019-05-25T00:03:56.704Z,95.20
2019-05-25T00:06:23.966Z,95.20
2019-05-25T00:08:51.289Z,95.40
2019-05-25T00:11:18.557Z,95.50
2019-05-25T00:13:45.822Z,95.70
2019-05-25T00:16:13.056Z,96.30
2019-05-25T00:18:40.345Z,96.60
2019-05-25T00:21:07.616Z,96.90
2019-05-25T00:23:34.946Z,96.90
2019-05-25T00:26:02.204Z,96.70
2019-05-25T00:28:29.492Z,96.80
2019-05-25T00:30:56.740Z,96.80
2019-05-25T00:33:24.287Z,97.00
2019-05-25T00:35:51.572Z,96.80
2019-05-25T00:38:18.847Z,96.50
2019-05-25T00:40:46.120Z,97.30
2019-05-25T00:43:13.506Z,97.20
2019-05-25T00:45:40.837Z,97.40
2019-05-25T00:48:08.117Z,97.20
2019-05-25T00:50:35.612Z,97.00
2019-05-25T00:53:02.899Z,97.10
2019-05-25T00:55:30.168Z,97.00
2019-05-25T00:57:57.420Z,96.90
2019-05-25T01:00:24.667Z,96.80
2019-05-25T01:02:52.053Z,96.80
2019-05-25T01:05:19.267Z,96.90
2019-05-25T01:07:46.568Z,96.90
2019-05-25T01:10:14.860Z,96.50
2019-05-25T01:12:42.116Z,96.60
2019-05-25T01:15:11.362Z,97.00
2019-05-25T01:17:38.527Z,97.10
2019-05-25T01:20:06.335Z,96.60
2019-05-25T01:22:33.761Z,96.90
2019-05-25T01:25:01.002Z,97.20
2019-05-25T01:27:28.277Z,96.90
2019-05-25T01:29:55.542Z,97.30
2019-05-25T01:32:22.824Z,97.20
2019-05-25T01:34:50.093Z,97.10
2019-05-25T01:37:17.331Z,97.30
2019-05-25T01:39:44.588Z,97.40
2019-05-25T01:42:11.778Z,98.00
2019-05-25T01:44:39.127Z,97.90
2019-05-25T01:47:06.376Z,97.50
2019-05-25T01:49:33.619Z,97.70
2019-05-25T01:52:00.859Z,97.90
2019-05-25T01:54:28.102Z,97.70
2019-05-25T01:56:55.372Z,97.70
2019-05-25T01:59:22.603Z,97.80
2019-05-25T02:01:49.871Z,98.00
2019-05-25T02:04:17.264Z,97.90
2019-05-25T02:06:44.523Z,97.90
2019-05-25T02:09:11.788Z,98.00
2019-05-25T02:11:39.050Z,97.70
2019-05-25T02:14:06.308Z,97.80
2019-05-25T02:16:33.676Z,98.10
2019-05-25T02:19:01.006Z,98.20
2019-05-25T02:21:28.240Z,98.40
2019-05-25T02:23:55.529Z,98.80
2019-05-25T02:26:22.771Z,98.90
2019-05-25T02:28:50.068Z,98.40
2019-05-25T02:31:17.352Z,98.60
2019-05-25T02:33:44.619Z,98.50
2019-05-25T02:36:11.844Z,98.70
2019-05-25T02:38:39.231Z,98.60
2019-05-25T02:41:06.900Z,99.00
2019-05-25T02:43:34.259Z,98.60
2019-05-25T02:46:01.505Z,99.00
2019-05-25T02:48:29.152Z,99.00
2019-05-25T02:50:56.404Z,99.40
2019-05-25T02:53:23.664Z,99.30
2019-05-25T02:55:50.911Z,99.30
2019-05-25T02:58:18.186Z,99.30
2019-05-25T03:00:45.576Z,99.10
2019-05-25T03:03:13.197Z,98.90
2019-05-25T03:05:40.667Z,99.40
2019-05-25T03:08:07.975Z,99.40
2019-05-25T03:10:35.864Z,99.50
2019-05-25T03:13:03.638Z,99.50
2019-05-25T03:15:30.925Z,99.60
2019-05-25T03:17:58.156Z,99.80
2019-05-25T03:20:25.497Z,99.90
2019-05-25T03:22:52.779Z,99.90
2019-05-25T03:25:20.781Z,99.70
2019-05-25T03:27:48.207Z,99.60
2019-05-25T03:30:21.480Z,99.50
2019-05-25T03:32:48.753Z,99.90
2019-05-25T03:35:15.986Z,99.60
2019-05-25T03:37:43.260Z,99.80
2019-05-25T03:40:10.614Z,99.80
2019-05-25T03:42:38.204Z,99.60
2019-05-25T03:45:06.536Z,99.90
2019-05-25T03:47:33.807Z,99.90
2019-05-25T03:50:01.028Z,99.80
2019-05-25T03:52:28.312Z,99.60
2019-05-25T03:54:55.552Z,99.60
2019-05-25T03:57:22.832Z,99.40
2019-05-25T03:59:50.111Z,99.30
2019-05-25T04:02:17.395Z,99.90
2019-05-25T04:04:44.676Z,99.90
2019-05-25T04:07:11.955Z,99.90
2019-05-25T04:09:39.196Z,99.90
2019-05-25T04:12:06.480Z,99.90
2019-05-25T04:14:33.763Z,99.90
2019-05-25T04:17:00.998Z,99.90
2019-05-25T04:19:28.285Z,99.90
2019-05-25T04:21:55.561Z,99.90
2019-05-25T04:24:22.820Z,99.90
2019-05-25T04:26:50.054Z,99.80
2019-05-25T04:29:17.364Z,99.90
2019-05-25T04:31:44.671Z,99.60
2019-05-25T04:34:11.930Z,99.60
2019-05-25T04:36:39.295Z,99.50
2019-05-25T04:39:06.965Z,99.50
2019-05-25T04:41:34.254Z,99.70
2019-05-25T04:44:01.539Z,99.80
2019-05-25T04:46:29.182Z,99.90
2019-05-25T04:48:56.421Z,99.90
2019-05-25T04:51:23.680Z,99.90
2019-05-25T04:53:50.955Z,99.90
2019-05-25T04:56:18.266Z,99.90
2019-05-25T04:58:45.596Z,99.90
2019-05-25T05:01:12.870Z,99.90
2019-05-25T05:03:40.188Z,99.90
2019-05-25T05:06:07.454Z,99.80
2019-05-25T05:08:35.688Z,99.90
2019-05-25T05:11:03.357Z,99.90
2019-05-25T05:13:30.615Z,99.80
2019-05-25T05:15:57.887Z,99.90
2019-05-25T05:18:25.178Z,99.90
2019-05-25T05:20:52.498Z,99.90
2019-05-25T05:23:19.823Z,99.90
2019-05-25T05:25:47.092Z,99.90
2019-05-25T05:28:14.321Z,99.90
2019-05-25T05:30:41.583Z,99.90
2019-05-25T05:33:08.860Z,99.90
2019-05-25T05:35:39.119Z,99.90
2019-05-25T05:38:06.280Z,99.30
2019-05-25T05:40:35.217Z,98.60
2019-05-25T05:43:11.147Z,97.90
2019-05-25T05:45:40.353Z,95.80
2019-05-25T05:48:09.665Z,94.70
2019-05-25T05:50:38.223Z,93.90
2019-05-25T05:53:05.481Z,92.50
2019-05-25T05:55:32.828Z,91.50
2019-05-25T06:00:27.698Z,90.80
2019-05-25T06:02:54.877Z,91.10
2019-05-25T06:05:22.232Z,90.50
2019-05-25T06:07:49.497Z,88.30
2019-05-25T06:10:16.880Z,89.30
2019-05-25T06:12:44.096Z,89.20
2019-05-25T06:15:12.059Z,86.00
2019-05-25T06:17:39.733Z,85.40
2019-05-25T06:23:36.412Z,83.30
2019-05-25T06:26:03.785Z,80.10
2019-05-25T06:28:31.072Z,81.40
2019-05-25T06:30:58.594Z,82.00
2019-05-25T06:33:25.915Z,80.80
2019-05-25T06:35:53.304Z,79.80
2019-05-25T06:38:20.569Z,79.20
2019-05-25T06:40:47.835Z,77.30
2019-05-25T06:43:15.108Z,78.60
2019-05-25T06:45:42.591Z,77.80
2019-05-25T06:48:10.089Z,69.70
2019-05-25T06:50:37.398Z,68.40
2019-05-25T06:53:04.667Z,71.00
2019-05-25T06:55:31.933Z,69.10
2019-05-25T06:57:59.200Z,68.10
2019-05-25T07:02:53.729Z,65.60
2019-05-25T07:05:20.989Z,65.60
2019-05-25T07:07:48.277Z,64.50
2019-05-25T07:10:15.740Z,62.30
2019-05-25T07:12:42.995Z,64.00
2019-05-25T07:15:10.502Z,60.80
2019-05-25T07:17:37.770Z,65.30
2019-05-25T07:20:05.157Z,63.30
2019-05-25T07:22:32.419Z,65.30
2019-05-25T07:24:59.719Z,66.30
2019-05-25T07:27:26.992Z,65.70
2019-05-25T07:29:54.239Z,67.30
2019-05-25T07:32:21.502Z,65.80
2019-05-25T07:34:48.848Z,66.70
2019-05-25T07:37:16.473Z,63.80
2019-05-25T07:39:43.787Z,60.10
2019-05-25T07:42:11.024Z,60.50
2019-05-25T07:44:38.293Z,59.10
2019-05-25T07:47:05.575Z,59.30
2019-05-25T07:49:32.820Z,59.40
2019-05-25T07:52:02.661Z,58.40
2019-05-25T07:54:29.237Z,58.50
2019-05-25T07:56:56.543Z,57.20
2019-05-25T07:59:23.898Z,56.50
2019-05-25T08:01:51.182Z,56.20
2019-05-25T08:04:18.452Z,55.40
2019-05-25T08:06:45.873Z,56.00
2019-05-25T08:09:13.295Z,54.90
2019-05-25T08:11:40.592Z,56.30
2019-05-25T08:14:07.886Z,54.30
2019-05-25T08:16:35.172Z,53.20
2019-05-25T08:19:02.484Z,53.60
2019-05-25T08:21:29.862Z,51.80
2019-05-25T08:23:57.141Z,53.90
2019-05-25T08:26:24.439Z,50.20
2019-05-25T08:28:51.732Z,50.20
2019-05-25T08:31:19.306Z,50.30
2019-05-25T08:33:46.540Z,50.90
2019-05-25T08:36:13.856Z,51.00
2019-05-25T08:38:41.113Z,51.00
2019-05-25T08:41:08.582Z,52.00
2019-05-25T08:43:35.967Z,51.80
2019-05-25T08:48:30.659Z,49.90
2019-05-25T08:50:59.660Z,49.20
2019-05-25T08:53:40.467Z,48.80
2019-05-25T08:55:56.353Z,46.40
2019-05-25T08:58:23.577Z,48.10
2019-05-25T09:00:50.868Z,47.50
2019-05-25T09:03:18.123Z,47.70
2019-05-25T09:05:45.559Z,49.50
2019-05-25T09:08:12.847Z,49.30
2019-05-25T09:10:40.084Z,49.60
2019-05-25T09:13:07.384Z,45.30
2019-05-25T09:27:51.304Z,45.90
2019-05-25T09:30:18.636Z,47.20
2019-05-25T09:32:46.086Z,46.00
2019-05-25T09:35:13.869Z,45.10
2019-05-25T09:37:41.640Z,44.70
2019-05-25T09:45:05.344Z,44.20
2019-05-25T09:47:32.651Z,45.10
2019-05-25T09:52:27.192Z,44.60
2019-05-25T09:54:55.716Z,43.50
2019-05-25T09:57:23.247Z,41.90
2019-05-25T09:59:50.702Z,43.00
2019-05-25T10:04:45.243Z,41.40
2019-05-25T10:07:12.489Z,41.40
2019-05-25T10:09:40.323Z,41.10
2019-05-25T10:12:07.711Z,41.10
2019-05-25T10:14:35.112Z,41.50
2019-05-25T10:19:29.772Z,41.50
2019-05-25T10:21:59.384Z,39.20
2019-05-25T10:24:26.293Z,41.10
2019-05-25T10:26:54.633Z,43.10
2019-05-25T10:29:35.971Z,40.90
2019-05-25T10:34:18.360Z,39.90
2019-05-25T10:36:45.697Z,38.00
2019-05-25T10:39:12.977Z,39.70
2019-05-25T10:41:40.212Z,37.70
2019-05-25T10:44:07.494Z,37.50
2019-05-25T10:49:02.055Z,38.10
2019-05-25T10:51:29.314Z,39.70
2019-05-25T10:53:56.570Z,40.80
2019-05-25T10:56:23.852Z,40.10
2019-05-25T10:58:51.249Z,39.10
2019-05-25T11:03:45.963Z,37.60
2019-05-25T11:06:13.215Z,39.10
2019-05-25T11:08:40.486Z,39.10
2019-05-25T11:13:35.008Z,39.00
2019-05-25T11:16:02.267Z,39.50
2019-05-25T11:18:29.647Z,40.40
2019-05-25T11:20:56.892Z,40.60
2019-05-25T11:23:24.186Z,40.20
2019-05-25T11:25:51.408Z,39.20
2019-05-25T11:28:18.716Z,40.20
2019-05-25T11:30:46.056Z,39.40
2019-05-25T11:33:13.327Z,39.00
2019-05-25T11:35:40.596Z,39.40
2019-05-25T11:38:07.842Z,40.70
2019-05-25T11:40:35.139Z,41.70
2019-05-25T11:43:02.446Z,42.20
2019-05-25T11:45:29.703Z,41.70
2019-05-25T11:50:24.640Z,39.70
2019-05-25T11:52:52.144Z,39.50
2019-05-25T11:55:21.316Z,40.00
2019-05-25T11:57:48.598Z,38.20
2019-05-25T12:00:24.880Z,37.70
2019-05-25T12:02:45.488Z,37.70
2019-05-25T12:05:13.059Z,39.10
2019-05-25T12:07:43.732Z,40.70
2019-05-25T12:10:10.155Z,40.40
2019-05-25T12:12:37.458Z,42.00
2019-05-25T12:15:05.156Z,46.20
2019-05-25T12:17:32.380Z,52.90
2019-05-25T12:19:59.752Z,57.40
2019-05-25T12:22:27.040Z,65.50
2019-05-25T17:15:50.369Z,56.90
2019-05-25T17:18:17.644Z,55.80
2019-05-25T17:20:44.983Z,57.80
2019-05-25T17:23:12.610Z,55.60
2019-05-25T17:25:39.977Z,55.50
2019-05-25T17:28:07.258Z,53.50
2019-05-25T17:30:42.420Z,56.10
2019-05-25T17:33:10.072Z,57.50
2019-05-25T17:35:37.302Z,56.60
2019-05-25T17:38:04.498Z,57.50
2019-05-25T17:40:31.889Z,56.90
2019-05-25T17:42:59.199Z,58.90
2019-05-25T17:45:26.449Z,63.30
2019-05-25T17:47:53.721Z,64.90
2019-05-25T17:50:20.979Z,64.40
2019-05-25T17:52:48.297Z,64.80
2019-05-25T17:55:15.659Z,64.30
2019-05-25T17:57:42.937Z,64.00
2019-05-25T18:00:13.246Z,64.10
2019-05-25T18:02:40.785Z,64.30
2019-05-25T18:05:09.878Z,61.30
2019-05-25T18:10:04.881Z,72.70
2019-05-25T18:12:32.232Z,78.80
2019-05-25T18:14:59.521Z,81.30
2019-05-25T18:17:26.824Z,82.80
2019-05-25T18:19:54.109Z,82.90
2019-05-25T18:22:21.392Z,82.20
2019-05-25T18:24:48.661Z,83.30
2019-05-25T18:27:15.921Z,84.70
2019-05-25T18:29:43.239Z,85.70
2019-05-25T18:32:10.538Z,86.20
2019-05-25T18:34:37.831Z,86.40
2019-05-25T18:37:05.153Z,87.80
2019-05-25T18:39:32.470Z,89.10
2019-05-25T18:41:59.961Z,89.10
2019-05-25T18:44:27.264Z,89.70
2019-05-25T18:46:54.536Z,90.30
2019-05-25T18:49:21.835Z,90.80
2019-05-25T18:51:49.118Z,91.40
2019-05-25T18:54:16.714Z,92.00
2019-05-25T18:56:44.025Z,92.40
2019-05-25T18:59:11.312Z,93.00
2019-05-25T19:01:38.589Z,93.50
2019-05-25T19:04:05.875Z,93.80
2019-05-25T19:06:33.175Z,93.80
2019-05-25T19:09:00.524Z,94.20
2019-05-25T19:11:27.803Z,94.80
2019-05-25T19:13:55.089Z,95.20
2019-05-25T19:16:22.408Z,95.30
2019-05-25T19:18:49.675Z,95.20
2019-05-25T19:21:16.953Z,95.40
2019-05-25T19:23:44.213Z,95.70
2019-05-25T19:26:11.747Z,95.60
2019-05-25T19:28:39.112Z,94.90
2019-05-25T19:31:06.688Z,95.10
2019-05-25T19:33:34.116Z,95.80
2019-05-25T19:36:01.386Z,95.70
2019-05-25T19:38:28.667Z,95.80
2019-05-25T19:40:55.972Z,95.80
2019-05-25T19:43:23.266Z,96.40
2019-05-25T19:45:50.581Z,97.20
2019-05-25T19:48:17.865Z,97.30
2019-05-25T19:50:45.401Z,97.40
2019-05-25T19:53:12.659Z,97.30
2019-05-25T19:55:39.827Z,97.40
2019-05-25T19:58:07.252Z,95.90
2019-05-25T20:00:34.537Z,94.80
2019-05-25T20:03:01.605Z,94.50
2019-05-25T20:05:28.911Z,92.90
2019-05-25T20:07:56.232Z,92.30
2019-05-25T20:10:23.699Z,91.60
2019-05-25T20:12:50.992Z,90.50
2019-05-25T20:15:18.475Z,89.20
2019-05-25T20:17:45.753Z,89.20
2019-05-25T20:20:13.529Z,88.80
2019-05-25T20:22:40.829Z,88.00
2019-05-25T20:25:08.206Z,84.60
2019-05-25T20:27:35.511Z,83.90
2019-05-25T20:30:02.958Z,84.90
2019-05-25T20:32:30.273Z,83.80
2019-05-25T20:34:57.725Z,83.40
2019-05-25T20:37:25.153Z,83.90
2019-05-25T20:39:52.543Z,80.70
2019-05-25T20:42:19.949Z,82.20
2019-05-25T20:44:47.282Z,84.50
2019-05-25T20:47:14.614Z,85.30
2019-05-25T20:49:41.903Z,84.90
2019-05-25T20:52:09.220Z,85.00
2019-05-25T20:54:37.195Z,85.20
2019-05-25T20:57:04.480Z,87.50
2019-05-25T20:59:31.866Z,87.10
2019-05-25T21:01:59.175Z,90.30
2019-05-25T21:04:26.471Z,89.80
2019-05-25T21:06:53.758Z,88.80
2019-05-25T21:09:21.057Z,87.30
2019-05-25T21:11:48.357Z,86.80
2019-05-25T21:14:15.600Z,86.90
2019-05-25T21:16:43.218Z,86.20
2019-05-25T21:19:10.489Z,87.80
2019-05-25T21:21:37.865Z,87.00
2019-05-25T21:24:05.141Z,85.50
2019-05-25T21:26:32.427Z,85.60
2019-05-25T21:28:59.855Z,86.60
2019-05-25T21:31:27.409Z,87.20
2019-05-25T21:33:54.723Z,86.50
2019-05-25T21:36:21.988Z,86.80
2019-05-25T21:38:49.255Z,86.70
2019-05-25T21:41:16.777Z,86.20
2019-05-25T21:43:44.180Z,86.80
2019-05-25T21:46:11.468Z,84.70
2019-05-25T21:48:38.763Z,84.30
2019-05-25T21:51:06.057Z,85.10
2019-05-25T21:53:33.356Z,82.40
2019-05-25T21:56:00.646Z,84.80
2019-05-25T21:58:27.925Z,89.00
2019-05-25T22:00:55.498Z,88.00
2019-05-25T22:03:22.896Z,88.20
2019-05-25T22:08:17.424Z,84.80
2019-05-25T22:10:45.031Z,87.70
2019-05-25T22:13:25.337Z,86.00
2019-05-25T22:15:41.530Z,86.90
2019-05-25T22:18:08.882Z,88.50
2019-05-25T22:20:36.164Z,90.10
2019-05-25T22:23:03.744Z,89.50
2019-05-25T22:25:31.122Z,86.20
2019-05-25T22:27:58.555Z,86.70
2019-05-25T22:30:25.818Z,90.00
2019-05-25T22:32:53.014Z,90.00
2019-05-25T22:35:20.303Z,88.70
2019-05-25T22:37:47.545Z,90.00
2019-05-25T22:40:14.841Z,91.10
2019-05-25T22:42:42.064Z,90.50
2019-05-25T22:45:11.708Z,90.90
2019-05-25T22:47:38.977Z,90.90
2019-05-25T22:50:06.573Z,90.70
2019-05-25T22:52:33.861Z,90.70
2019-05-25T22:55:01.272Z,91.70
2019-05-25T22:57:28.652Z,92.10
2019-05-25T22:59:55.916Z,92.40
2019-05-25T23:02:23.189Z,92.10
2019-05-25T23:04:50.957Z,92.80
2019-05-25T23:07:18.345Z,93.30
2019-05-25T23:09:45.874Z,93.40
2019-05-25T23:12:13.153Z,93.40
2019-05-25T23:14:40.465Z,93.80
2019-05-25T23:17:07.734Z,93.90
2019-05-25T23:22:03.073Z,93.70
2019-05-25T23:24:30.357Z,93.40
2019-05-25T23:26:57.638Z,93.70
2019-05-25T23:29:24.963Z,94.00
2019-05-25T23:31:52.394Z,94.20
2019-05-25T23:34:19.637Z,94.70
2019-05-25T23:36:46.976Z,95.20
2019-05-25T23:39:14.282Z,95.50
2019-05-25T23:41:41.544Z,96.00
2019-05-25T23:44:09.094Z,95.80
2019-05-25T23:46:36.417Z,95.90
2019-05-25T23:49:03.892Z,96.40
2019-05-25T23:51:31.504Z,96.40
2019-05-25T23:53:58.743Z,96.20
2019-05-25T23:56:26.029Z,96.20
2019-05-25T23:58:53.344Z,96.50
